Time;durP1;ratioP1;P1;durP2;ratioP2;P2;SDS_P1;SDS_P2;PMS_P1;PMS_P2;Temp;Humidity;BMP_temperature;BMP_pressure;BME280_temperature;BME280_humidity;BME280_pressure;Samples;Min_cycle;Max_cycle;Signal;HPM_P1;HPM_P2
2021/01/21 00:00:36;;;;;;;2.20;0.90;;;13.50;99.90;;;;;;6152356;23;20150;-80
2021/01/21 00:03:03;;;;;;;2.10;0.70;;;13.50;99.90;;;;;;6151262;23;20637;-81
2021/01/21 00:05:29;;;;;;;2.85;0.82;;;13.50;99.90;;;;;;6152790;23;20956;-80
2021/01/21 00:07:55;;;;;;;2.03;0.70;;;13.50;99.90;;;;;;6094505;23;20186;-81
2021/01/21 00:10:21;;;;;;;2.50;1.10;;;13.50;99.90;;;;;;6002167;23;20610;-81
2021/01/21 00:12:46;;;;;;;3.30;1.10;;;13.50;99.90;;;;;;6002168;23;20220;-82
2021/01/21 00:15:12;;;;;;;3.13;0.80;;;13.50;99.90;;;;;;6002435;23;20177;-82
2021/01/21 00:17:38;;;;;;;2.10;0.70;;;13.50;99.90;;;;;;5978574;23;20154;-82
2021/01/21 00:20:04;;;;;;;3.10;0.83;;;13.50;99.90;;;;;;6003723;23;20531;-81
2021/01/21 00:22:30;;;;;;;2.58;1.00;;;13.50;99.90;;;;;;6003775;23;20146;-81
2021/01/21 00:24:56;;;;;;;3.97;1.00;;;13.40;99.90;;;;;;6008490;23;20190;-81
2021/01/21 00:27:22;;;;;;;3.00;0.80;;;13.40;99.90;;;;;;6001503;23;20531;-81
2021/01/21 00:29:48;;;;;;;3.00;0.90;;;13.40;99.90;;;;;;6003845;23;20154;-80
2021/01/21 00:32:14;;;;;;;1.67;0.73;;;13.40;99.90;;;;;;6003707;23;20588;-81
2021/01/21 00:34:39;;;;;;;1.20;0.80;;;13.40;99.90;;;;;;6003845;23;20244;-81
2021/01/21 00:37:05;;;;;;;3.47;0.67;;;13.40;99.90;;;;;;6004042;23;20656;-81
2021/01/21 00:39:31;;;;;;;4.00;0.70;;;13.40;99.90;;;;;;6003407;23;20258;-81
2021/01/21 00:41:56;;;;;;;2.00;0.80;;;13.50;99.90;;;;;;6003555;23;20177;-81
2021/01/21 00:44:22;;;;;;;1.87;0.60;;;13.50;99.90;;;;;;6003924;23;20169;-81
2021/01/21 00:46:50;;;;;;;1.30;0.70;;;13.50;99.90;;;;;;6003856;23;20212;-81
2021/01/21 00:49:15;;;;;;;4.47;0.67;;;13.50;99.90;;;;;;6003575;23;20208;-81
2021/01/21 00:51:41;;;;;;;3.13;0.70;;;13.50;99.90;;;;;;6003684;23;20157;-82
2021/01/21 00:54:07;;;;;;;2.57;0.80;;;13.50;99.90;;;;;;6003883;23;20201;-81
2021/01/21 00:56:36;;;;;;;2.10;0.70;;;13.50;99.90;;;;;;6002110;23;20909;-81
2021/01/21 00:59:01;;;;;;;1.73;0.80;;;13.50;99.90;;;;;;6001486;23;20558;-81
2021/01/21 01:01:27;;;;;;;5.90;1.17;;;13.50;99.90;;;;;;6004220;23;20209;-81
2021/01/21 01:03:54;;;;;;;1.55;0.60;;;13.50;99.90;;;;;;6007744;23;20532;-81
2021/01/21 01:06:21;;;;;;;2.13;0.70;;;13.50;99.90;;;;;;6003883;23;20236;-81
2021/01/21 01:08:47;;;;;;;1.57;0.80;;;13.40;99.90;;;;;;6089465;23;20249;-81
2021/01/21 01:11:13;;;;;;;1.17;0.70;;;13.50;99.90;;;;;;6151745;23;20533;-81
2021/01/21 01:13:39;;;;;;;2.60;0.70;;;13.50;99.90;;;;;;6126561;23;20142;-81
2021/01/21 01:16:10;;;;;;;1.40;0.70;;;13.50;99.90;;;;;;6152730;23;20566;-81
2021/01/21 01:18:47;;;;;;;1.90;0.90;;;13.50;99.90;;;;;;6151308;23;20865;-81
2021/01/21 01:21:14;;;;;;;1.93;0.70;;;13.50;99.90;;;;;;6151469;23;20154;-82
2021/01/21 01:23:39;;;;;;;2.33;0.83;;;13.50;99.90;;;;;;6125980;23;20537;-81
2021/01/21 01:26:05;;;;;;;1.50;0.70;;;13.50;99.90;;;;;;6125824;23;20522;-81
2021/01/21 01:28:31;;;;;;;2.03;0.50;;;13.50;99.90;;;;;;6125333;23;20170;-81
2021/01/21 01:30:57;;;;;;;2.60;0.70;;;13.50;99.90;;;;;;6151763;23;20530;-81
2021/01/21 01:33:23;;;;;;;1.53;0.73;;;13.50;99.90;;;;;;6151917;23;20197;-82
2021/01/21 01:35:49;;;;;;;2.53;0.70;;;13.60;99.90;;;;;;6126160;23;20573;-81
2021/01/21 01:38:15;;;;;;;3.10;0.70;;;13.60;99.90;;;;;;6125539;23;20526;-81
2021/01/21 01:40:41;;;;;;;2.95;0.80;;;13.60;99.90;;;;;;6132056;23;21356;-81
2021/01/21 01:43:11;;;;;;;3.08;0.70;;;13.60;99.90;;;;;;6126401;23;20153;-81
2021/01/21 01:45:37;;;;;;;1.20;0.60;;;13.60;99.90;;;;;;6125749;23;20186;-81
2021/01/21 01:48:03;;;;;;;1.83;0.90;;;13.70;99.90;;;;;;6125036;23;20625;-81
2021/01/21 01:50:45;;;;;;;1.90;0.80;;;13.70;99.90;;;;;;6151712;23;20487;-81
2021/01/21 01:53:14;;;;;;;3.37;0.67;;;13.70;99.90;;;;;;6125841;23;20866;-81
2021/01/21 01:55:44;;;;;;;2.07;0.60;;;13.80;99.90;;;;;;6125687;23;20561;-81
2021/01/21 01:58:32;;;;;;;1.90;0.70;;;13.80;99.90;;;;;;6100912;23;20538;-81
2021/01/21 02:01:11;;;;;;;2.10;0.70;;;13.80;99.90;;;;;;6125658;23;20137;-81
2021/01/21 02:03:37;;;;;;;1.60;0.70;;;13.90;99.90;;;;;;6101095;23;20553;-81
2021/01/21 02:06:29;;;;;;;1.55;0.73;;;13.90;99.90;;;;;;6151998;23;20135;-82
2021/01/21 02:08:58;;;;;;;1.27;0.63;;;13.90;99.90;;;;;;6150869;23;20177;-82
2021/01/21 02:11:27;;;;;;;2.80;0.70;;;14.00;99.90;;;;;;6125928;23;20465;-82
2021/01/21 02:14:40;;;;;;;2.10;0.70;;;13.90;99.90;;;;;;6126080;23;20526;-82
2021/01/21 02:17:11;;;;;;;2.53;0.70;;;13.90;99.00;;;;;;6039117;23;20530;-82
2021/01/21 02:20:10;;;;;;;1.90;0.60;;;14.00;99.90;;;;;;6147091;23;20538;-82
2021/01/21 02:23:05;;;;;;;1.77;0.50;;;14.00;99.90;;;;;;6151666;23;20572;-82
2021/01/21 02:25:56;;;;;;;1.90;0.83;;;14.10;99.90;;;;;;6125872;23;20593;-82
2021/01/21 02:29:05;;;;;;;2.23;0.60;;;14.00;99.10;;;;;;6125512;23;20539;-81
2021/01/21 02:31:40;;;;;;;1.73;0.70;;;14.10;99.80;;;;;;6126037;23;21251;-81
2021/01/21 02:34:10;;;;;;;3.00;0.60;;;14.10;99.80;;;;;;6127580;23;20912;-81
2021/01/21 02:36:40;;;;;;;1.57;0.57;;;14.20;99.90;;;;;;6128056;23;20483;-82
2021/01/21 02:39:19;;;;;;;2.00;0.90;;;14.10;99.00;;;;;;6127319;23;20585;-82
2021/01/21 02:41:52;;;;;;;1.60;1.03;;;14.20;99.10;;;;;;6127622;23;20548;-81
2021/01/21 02:44:18;;;;;;;2.30;0.83;;;14.20;99.50;;;;;;6153721;23;20570;-82
2021/01/21 02:46:45;;;;;;;1.40;0.60;;;14.20;99.50;;;;;;6127809;23;20530;-82
2021/01/21 02:49:12;;;;;;;1.07;0.50;;;14.20;99.10;;;;;;6152771;23;20569;-82
2021/01/21 02:52:11;;;;;;;1.57;0.70;;;14.20;99.40;;;;;;6103305;23;20541;-82
2021/01/21 02:54:45;;;;;;;2.10;0.67;;;14.20;99.10;;;;;;6159782;23;20562;-82
2021/01/21 02:57:26;;;;;;;3.00;0.60;;;14.30;99.50;;;;;;6127361;23;20612;-82
2021/01/21 02:59:57;;;;;;;1.40;0.70;;;14.30;99.60;;;;;;6101841;23;20597;-82
2021/01/21 03:02:27;;;;;;;1.33;0.80;;;14.30;99.20;;;;;;6103127;23;20533;-82
2021/01/21 03:04:54;;;;;;;2.90;0.63;;;14.20;99.30;;;;;;6153999;23;20661;-82
2021/01/21 03:07:22;;;;;;;1.10;0.50;;;14.20;99.40;;;;;;6156484;23;20613;-82
2021/01/21 03:09:49;;;;;;;1.20;0.60;;;14.20;99.70;;;;;;6153597;23;20604;-82
2021/01/21 03:12:20;;;;;;;1.57;0.80;;;14.20;99.80;;;;;;6153410;23;20560;-81
2021/01/21 03:14:49;;;;;;;2.00;0.70;;;14.20;99.40;;;;;;6127841;23;20573;-82
2021/01/21 03:17:26;;;;;;;2.53;0.70;;;14.20;99.50;;;;;;6102528;23;20577;-82
2021/01/21 03:20:02;;;;;;;1.27;0.60;;;14.20;99.40;;;;;;6127420;23;20585;-81
2021/01/21 03:22:29;;;;;;;1.60;0.67;;;14.20;99.50;;;;;;6127028;23;20534;-81
2021/01/21 03:24:55;;;;;;;1.97;0.80;;;14.20;99.70;;;;;;6153516;23;20596;-81
2021/01/21 03:27:31;;;;;;;1.93;0.77;;;14.20;99.60;;;;;;6102346;23;20217;-81
2021/01/21 03:30:07;;;;;;;1.20;0.60;;;14.20;99.40;;;;;;6127342;23;20498;-81
2021/01/21 03:32:34;;;;;;;1.70;0.60;;;14.20;99.60;;;;;;6133515;23;20581;-82
2021/01/21 03:35:00;;;;;;;2.97;0.80;;;14.20;99.60;;;;;;6127002;23;20562;-81
2021/01/21 03:37:27;;;;;;;3.10;0.70;;;14.30;99.70;;;;;;6102242;23;20534;-82
2021/01/21 03:39:54;;;;;;;1.45;0.60;;;14.30;99.60;;;;;;6127057;23;20576;-81
2021/01/21 03:42:52;;;;;;;1.27;0.50;;;14.20;99.50;;;;;;6146880;23;20147;-81
2021/01/21 03:45:26;;;;;;;2.23;0.60;;;14.30;99.80;;;;;;6127112;23;20698;-82
2021/01/21 03:47:56;;;;;;;1.40;0.60;;;14.30;99.50;;;;;;6126465;23;20978;-81
2021/01/21 03:50:22;;;;;;;2.17;0.60;;;14.30;99.50;;;;;;6152463;23;20543;-82
2021/01/21 03:52:49;;;;;;;1.27;0.60;;;14.30;99.60;;;;;;6127163;23;20140;-82
2021/01/21 03:55:23;;;;;;;2.57;0.70;;;14.30;99.50;;;;;;6108582;23;20978;-82
2021/01/21 03:57:59;;;;;;;1.83;0.60;;;14.40;99.60;;;;;;6126525;23;20522;-82
2021/01/21 04:00:34;;;;;;;1.30;0.60;;;14.40;99.50;;;;;;6126572;23;20530;-81
2021/01/21 04:03:01;;;;;;;1.80;0.50;;;14.40;99.60;;;;;;6153014;23;20538;-81
2021/01/21 04:05:46;;;;;;;2.83;0.53;;;14.40;99.60;;;;;;6126992;23;20566;-81
2021/01/21 04:08:17;;;;;;;1.40;0.70;;;14.40;99.60;;;;;;6058726;23;20680;-81
2021/01/21 04:10:49;;;;;;;1.30;0.77;;;14.40;99.60;;;;;;6002540;23;20507;-82
2021/01/21 04:13:44;;;;;;;1.37;0.50;;;14.40;99.30;;;;;;6002867;23;20841;-82
2021/01/21 04:16:17;;;;;;;2.07;0.50;;;14.40;99.60;;;;;;5980770;23;21043;-81
2021/01/21 04:18:43;;;;;;;1.10;0.57;;;14.40;99.70;;;;;;6001520;23;20535;-82
2021/01/21 04:21:11;;;;;;;0.93;0.40;;;14.40;99.70;;;;;;5979197;23;20162;-81
2021/01/21 04:23:38;;;;;;;1.10;0.60;;;14.40;99.70;;;;;;6002521;23;20614;-81
2021/01/21 04:26:13;;;;;;;1.65;0.50;;;14.40;99.80;;;;;;6002652;23;20558;-82
2021/01/21 04:28:43;;;;;;;1.60;0.50;;;14.40;99.80;;;;;;6001768;23;20162;-82
2021/01/21 04:31:09;;;;;;;1.00;0.50;;;14.40;99.90;;;;;;6003624;23;20527;-82
2021/01/21 04:33:35;;;;;;;1.50;0.43;;;14.40;99.90;;;;;;6002363;23;20154;-82
2021/01/21 04:36:04;;;;;;;1.30;0.50;;;14.40;99.90;;;;;;6002388;23;20662;-81
2021/01/21 04:38:36;;;;;;;1.20;0.50;;;14.40;99.90;;;;;;5979801;23;20594;-82
2021/01/21 04:41:06;;;;;;;1.30;0.40;;;14.30;99.90;;;;;;6002218;23;20834;-81
2021/01/21 04:43:48;;;;;;;2.00;0.50;;;14.30;99.90;;;;;;6002373;23;20589;-82
2021/01/21 04:46:25;;;;;;;1.10;0.50;;;14.30;99.90;;;;;;6007373;23;20130;-81
2021/01/21 04:48:54;;;;;;;2.40;0.40;;;14.30;99.90;;;;;;6001634;23;20673;-81
2021/01/21 04:51:21;;;;;;;1.10;0.50;;;14.20;99.90;;;;;;6002234;23;20534;-81
2021/01/21 04:54:04;;;;;;;1.00;0.40;;;14.20;99.90;;;;;;5979134;23;20629;-81
2021/01/21 04:56:48;;;;;;;0.90;0.40;;;14.20;99.90;;;;;;6002122;23;20507;-82
2021/01/21 04:59:37;;;;;;;1.03;0.50;;;14.10;99.90;;;;;;6002254;23;20221;-82
2021/01/21 05:02:06;;;;;;;3.15;0.60;;;14.10;99.90;;;;;;6003173;23;20584;-81
2021/01/21 05:04:34;;;;;;;1.10;0.50;;;14.10;99.90;;;;;;6002315;23;20233;-81
2021/01/21 05:07:08;;;;;;;1.13;0.50;;;14.00;99.90;;;;;;6002453;23;20494;-81
2021/01/21 05:09:36;;;;;;;1.03;0.40;;;14.00;99.90;;;;;;5978100;23;20619;-81
2021/01/21 05:12:05;;;;;;;1.00;0.50;;;14.00;99.90;;;;;;6002036;23;20538;-81
2021/01/21 05:14:31;;;;;;;1.20;0.50;;;13.90;99.90;;;;;;6003527;23;20174;-81
2021/01/21 05:17:16;;;;;;;1.45;0.50;;;13.90;99.90;;;;;;6003125;23;20839;-81
2021/01/21 05:19:51;;;;;;;1.55;0.40;;;13.90;99.90;;;;;;6003890;23;20482;-81
2021/01/21 05:22:37;;;;;;;1.00;0.50;;;13.90;99.90;;;;;;6009472;23;20135;-81
2021/01/21 05:25:22;;;;;;;2.17;0.60;;;14.00;99.90;;;;;;6003745;23;21100;-81
2021/01/21 05:28:29;;;;;;;1.10;0.52;;;14.00;99.90;;;;;;6005410;23;20185;-81
2021/01/21 05:31:14;;;;;;;1.00;0.47;;;14.00;99.90;;;;;;5978398;23;20149;-81
2021/01/21 05:33:45;;;;;;;1.10;0.60;;;14.00;99.90;;;;;;6002272;23;20519;-81
2021/01/21 05:36:17;;;;;;;1.23;0.40;;;14.00;99.90;;;;;;6002319;23;20138;-81
2021/01/21 05:38:58;;;;;;;1.73;0.50;;;14.10;99.90;;;;;;6001713;23;20506;-81
2021/01/21 05:41:53;;;;;;;8.20;0.57;;;14.10;99.90;;;;;;6054477;23;20560;-82
2021/01/21 05:44:45;;;;;;;2.22;0.75;;;14.20;99.90;;;;;;6001612;23;20602;-82
2021/01/21 05:47:18;;;;;;;5.28;0.80;;;13.90;99.90;;;;;;6001613;23;20149;-82
2021/01/21 05:49:44;;;;;;;3.30;0.60;;;13.30;99.90;;;;;;6002377;23;20185;-81
2021/01/21 05:52:15;;;;;;;2.85;0.70;;;12.60;99.90;;;;;;6002352;23;20473;-82
2021/01/21 05:54:43;;;;;;;3.70;0.60;;;12.10;99.90;;;;;;6006742;23;20197;-82
2021/01/21 05:57:15;;;;;;;2.72;0.60;;;11.50;99.90;;;;;;6002353;23;20135;-82
2021/01/21 05:59:43;;;;;;;1.52;0.60;;;11.00;99.90;;;;;;6007672;23;20146;-82
2021/01/21 06:02:18;;;;;;;2.30;0.60;;;10.60;99.90;;;;;;6002696;23;20133;-82
2021/01/21 06:04:51;;;;;;;1.85;0.60;;;10.30;99.90;;;;;;6003538;23;20181;-82
2021/01/21 06:07:21;;;;;;;1.90;0.50;;;10.00;99.90;;;;;;6002415;23;20237;-83
2021/01/21 06:09:48;;;;;;;1.80;0.50;;;9.70;99.90;;;;;;6004722;23;20184;-82
2021/01/21 06:12:14;;;;;;;1.58;0.60;;;9.50;99.90;;;;;;6002967;23;20224;-82
2021/01/21 06:14:41;;;;;;;1.30;0.52;;;9.30;99.90;;;;;;6004619;23;20208;-81
2021/01/21 06:17:06;;;;;;;1.52;0.50;;;9.20;99.90;;;;;;6005350;23;20494;-82
2021/01/21 06:19:48;;;;;;;3.75;0.50;;;9.00;99.90;;;;;;6003383;23;20189;-82
2021/01/21 06:22:17;;;;;;;1.30;0.60;;;8.90;99.90;;;;;;6003554;23;20588;-82
2021/01/21 06:25:04;;;;;;;2.05;0.60;;;8.80;99.90;;;;;;6003839;23;20570;-81
2021/01/21 06:27:32;;;;;;;2.28;1.30;;;8.70;99.90;;;;;;6004500;23;20150;-81
2021/01/21 06:30:00;;;;;;;2.42;0.63;;;8.60;99.90;;;;;;6005302;23;20193;-81
2021/01/21 06:32:37;;;;;;;1.67;0.60;;;8.60;99.90;;;;;;5979735;23;20452;-82
2021/01/21 06:35:06;;;;;;;2.35;0.73;;;8.50;99.90;;;;;;6002929;23;20259;-83
2021/01/21 06:37:36;;;;;;;3.78;0.70;;;8.50;99.90;;;;;;6008529;23;20169;-82
2021/01/21 06:40:11;;;;;;;1.80;0.73;;;8.50;99.90;;;;;;6004522;23;20154;-81
2021/01/21 06:42:41;;;;;;;1.80;0.70;;;8.50;99.90;;;;;;6004669;23;20573;-82
2021/01/21 06:45:08;;;;;;;2.03;0.75;;;8.50;99.90;;;;;;5980883;23;20518;-82
2021/01/21 06:47:34;;;;;;;1.33;0.70;;;8.50;99.90;;;;;;6003172;23;20145;-82
2021/01/21 06:50:05;;;;;;;1.40;0.70;;;8.50;99.90;;;;;;6004766;23;20161;-82
2021/01/21 06:52:32;;;;;;;1.80;0.70;;;8.50;99.90;;;;;;6004393;23;20134;-80
2021/01/21 06:55:01;;;;;;;1.90;0.68;;;8.50;99.90;;;;;;6004228;23;20221;-80
2021/01/21 06:57:36;;;;;;;2.75;0.60;;;8.60;99.90;;;;;;6003439;23;20245;-80
2021/01/21 07:00:28;;;;;;;2.45;0.70;;;8.60;99.90;;;;;;6004047;23;20288;-80
2021/01/21 07:02:54;;;;;;;1.58;0.60;;;8.60;99.90;;;;;;6014458;23;20161;-80
2021/01/21 07:05:22;;;;;;;4.00;0.87;;;8.60;99.90;;;;;;6006107;23;20739;-81
2021/01/21 07:07:55;;;;;;;1.80;0.60;;;8.60;99.90;;;;;;6031627;23;20556;-81
2021/01/21 07:10:47;;;;;;;2.50;0.65;;;8.60;99.90;;;;;;6153271;23;20138;-81
2021/01/21 07:13:23;;;;;;;2.13;0.60;;;8.60;99.90;;;;;;6152409;23;20419;-81
2021/01/21 07:16:00;;;;;;;1.92;0.50;;;8.60;99.90;;;;;;6155300;23;20166;-81
2021/01/21 07:18:46;;;;;;;1.25;0.55;;;8.60;99.90;;;;;;6153152;23;20222;-81
2021/01/21 07:21:16;;;;;;;1.10;0.50;;;8.60;99.90;;;;;;6153112;23;20139;-82
2021/01/21 07:23:43;;;;;;;1.13;0.50;;;8.60;99.90;;;;;;6127311;23;20158;-82
2021/01/21 07:26:25;;;;;;;0.98;0.40;;;8.60;99.90;;;;;;6126740;23;20147;-78
2021/01/21 07:29:09;;;;;;;1.25;0.77;;;8.60;99.90;;;;;;6102097;23;20166;-80
2021/01/21 07:31:55;;;;;;;1.25;0.60;;;8.60;99.90;;;;;;6152815;23;20147;-81
2021/01/21 07:34:43;;;;;;;1.13;0.50;;;8.60;99.90;;;;;;6153253;23;20167;-81
2021/01/21 07:37:24;;;;;;;0.90;0.40;;;8.60;99.90;;;;;;6126787;23;20547;-81
2021/01/21 07:40:06;;;;;;;1.30;0.50;;;8.70;99.90;;;;;;6100944;23;20142;-82
2021/01/21 07:42:36;;;;;;;1.13;0.45;;;8.70;99.90;;;;;;6153663;23;20578;-82
2021/01/21 07:45:06;;;;;;;1.00;0.40;;;8.70;99.90;;;;;;6133012;23;20267;-81
2021/01/21 07:47:37;;;;;;;2.38;0.50;;;8.70;99.90;;;;;;6153015;23;20616;-81
2021/01/21 07:50:33;;;;;;;1.42;0.40;;;8.70;99.90;;;;;;6154479;23;20445;-82
2021/01/21 07:53:01;;;;;;;1.00;0.40;;;8.70;99.90;;;;;;6155631;23;20135;-81
2021/01/21 07:55:41;;;;;;;1.30;0.50;;;8.80;99.90;;;;;;6152331;23;20174;-81
2021/01/21 07:58:43;;;;;;;1.00;0.40;;;8.70;99.90;;;;;;6152788;23;20138;-80
2021/01/21 08:01:10;;;;;;;0.88;0.38;;;8.80;99.90;;;;;;6153318;23;20197;-81
2021/01/21 08:03:41;;;;;;;1.08;0.40;;;8.90;99.90;;;;;;6153147;23;20154;-81
2021/01/21 08:06:11;;;;;;;1.35;0.50;;;8.90;99.90;;;;;;6153235;23;20512;-77
2021/01/21 08:08:42;;;;;;;2.65;0.55;;;8.80;99.90;;;;;;6151352;23;20174;-78
2021/01/21 08:11:10;;;;;;;1.20;0.50;;;8.90;99.90;;;;;;6152455;23;20498;-78
2021/01/21 08:13:36;;;;;;;0.90;0.40;;;8.90;99.90;;;;;;6126696;23;20195;-78
2021/01/21 08:16:03;;;;;;;2.15;0.45;;;8.90;99.90;;;;;;6152619;23;20167;-77
2021/01/21 08:18:29;;;;;;;2.20;0.90;;;9.00;99.90;;;;;;6152030;23;20485;-77
2021/01/21 08:20:55;;;;;;;1.57;0.57;;;9.00;99.90;;;;;;6151648;23;20146;-77
2021/01/21 08:23:21;;;;;;;1.15;0.50;;;9.00;99.90;;;;;;6125001;23;20557;-78
2021/01/21 08:25:51;;;;;;;1.33;0.50;;;9.00;99.90;;;;;;6126180;23;20174;-79
2021/01/21 08:28:19;;;;;;;1.50;0.50;;;9.00;99.90;;;;;;6104845;23;20550;-78
2021/01/21 08:30:46;;;;;;;1.55;0.50;;;9.00;99.90;;;;;;6102601;23;20131;-78
2021/01/21 08:33:14;;;;;;;3.90;0.70;;;9.00;99.90;;;;;;6126586;23;20488;-78
2021/01/21 08:36:04;;;;;;;1.42;0.60;;;9.00;99.90;;;;;;6126589;23;20192;-78
2021/01/21 08:38:42;;;;;;;1.83;0.60;;;9.00;99.90;;;;;;6151777;23;20162;-78
2021/01/21 08:41:16;;;;;;;2.35;0.50;;;9.10;99.90;;;;;;6152070;23;20603;-77
2021/01/21 08:43:43;;;;;;;1.73;0.60;;;9.10;99.90;;;;;;6126126;23;20143;-78
2021/01/21 08:46:28;;;;;;;1.25;0.40;;;9.00;99.90;;;;;;6153652;23;20201;-78
2021/01/21 08:49:08;;;;;;;2.30;0.60;;;9.00;99.90;;;;;;6127140;23;20170;-79
2021/01/21 08:51:42;;;;;;;1.33;0.60;;;8.90;99.90;;;;;;6127381;23;20445;-79
2021/01/21 08:54:23;;;;;;;2.15;0.50;;;8.80;99.90;;;;;;6126168;23;20174;-80
2021/01/21 08:57:08;;;;;;;2.35;0.50;;;8.80;99.90;;;;;;6152517;23;20644;-80
2021/01/21 08:59:54;;;;;;;3.30;0.70;;;8.80;99.90;;;;;;6151048;23;20276;-81
2021/01/21 09:02:42;;;;;;;2.97;0.80;;;8.80;99.90;;;;;;6152464;23;20150;-81
2021/01/21 09:05:09;;;;;;;3.80;0.82;;;8.70;99.90;;;;;;6128129;23;20609;-80
2021/01/21 09:07:34;;;;;;;2.47;0.80;;;8.80;99.90;;;;;;6155768;23;20174;-80
2021/01/21 09:10:13;;;;;;;7.13;1.00;;;8.70;99.90;;;;;;6126289;23;20589;-82
2021/01/21 09:12:39;;;;;;;13.70;1.30;;;8.80;99.90;;;;;;6152341;23;20150;-81
2021/01/21 09:15:09;;;;;;;6.37;1.30;;;8.80;99.90;;;;;;6126388;23;20158;-80
2021/01/21 09:17:37;;;;;;;7.18;1.45;;;8.80;99.90;;;;;;6152097;23;20146;-81
2021/01/21 09:20:21;;;;;;;1.50;0.85;;;8.90;99.90;;;;;;6152499;23;20177;-80
2021/01/21 09:22:49;;;;;;;5.07;0.80;;;8.90;99.90;;;;;;6126440;23;20150;-78
2021/01/21 09:25:30;;;;;;;1.90;0.60;;;9.00;99.90;;;;;;6152015;23;20237;-78
2021/01/21 09:27:56;;;;;;;2.13;0.60;;;9.00;99.90;;;;;;6151410;23;20162;-79
2021/01/21 09:30:26;;;;;;;3.38;0.70;;;9.10;99.90;;;;;;6151749;23;20158;-79
2021/01/21 09:32:52;;;;;;;2.30;0.60;;;9.10;99.90;;;;;;6151944;23;20146;-81
2021/01/21 09:35:20;;;;;;;3.43;0.87;;;9.20;99.90;;;;;;6126190;23;20217;-81
2021/01/21 09:37:48;;;;;;;3.40;0.70;;;9.20;99.90;;;;;;6152065;23;20172;-80
2021/01/21 09:40:21;;;;;;;2.35;0.80;;;9.20;99.90;;;;;;6152237;23;20186;-80
2021/01/21 09:42:48;;;;;;;2.90;0.90;;;9.20;99.90;;;;;;6154263;23;20592;-81
2021/01/21 09:45:14;;;;;;;5.05;0.80;;;9.30;99.90;;;;;;6154955;23;20166;-78
2021/01/21 09:47:40;;;;;;;3.30;0.70;;;9.30;99.90;;;;;;6154009;23;20453;-77
2021/01/21 09:50:08;;;;;;;5.47;1.13;;;9.40;99.90;;;;;;6154542;23;20157;-82
2021/01/21 09:52:35;;;;;;;5.78;0.95;;;9.40;99.90;;;;;;6128539;23;20157;-83
2021/01/21 09:55:02;;;;;;;7.25;1.00;;;9.50;99.90;;;;;;6154240;23;20166;-82
2021/01/21 09:57:28;;;;;;;6.40;0.88;;;9.50;99.90;;;;;;6153969;23;20154;-82
2021/01/21 09:59:53;;;;;;;2.80;0.97;;;9.60;99.90;;;;;;6154282;23;20588;-82
2021/01/21 10:02:19;;;;;;;15.50;1.17;;;9.60;99.90;;;;;;6152695;23;20159;-82
2021/01/21 10:04:45;;;;;;;5.27;0.80;;;9.70;99.90;;;;;;6154026;23;20558;-81
2021/01/21 10:07:11;;;;;;;5.53;0.60;;;9.70;99.90;;;;;;6157879;23;20154;-81
2021/01/21 10:09:38;;;;;;;3.63;0.60;;;9.70;99.90;;;;;;6152461;23;20586;-81
2021/01/21 10:12:05;;;;;;;2.10;0.85;;;9.80;99.90;;;;;;6151462;23;20862;-81
2021/01/21 10:14:31;;;;;;;3.38;0.93;;;9.90;99.90;;;;;;6101521;23;20217;-81
2021/01/21 10:16:58;;;;;;;8.53;1.43;;;9.90;99.90;;;;;;6157405;23;20515;-81
2021/01/21 10:19:25;;;;;;;1.75;0.70;;;10.00;99.90;;;;;;6130231;23;20581;-82
2021/01/21 10:21:51;;;;;;;4.80;0.90;;;10.10;99.90;;;;;;6161077;23;20209;-81
2021/01/21 10:24:16;;;;;;;4.47;1.30;;;10.20;99.90;;;;;;6154166;23;20185;-81
2021/01/21 10:26:42;;;;;;;7.70;1.07;;;10.20;99.90;;;;;;6127916;23;20538;-81
2021/01/21 10:29:08;;;;;;;2.97;0.70;;;10.30;99.90;;;;;;6154221;23;20566;-80
2021/01/21 10:31:35;;;;;;;2.07;0.90;;;10.30;99.90;;;;;;6157254;23;20173;-80
2021/01/21 10:34:04;;;;;;;4.28;1.20;;;10.40;99.90;;;;;;6159168;23;20174;-80
2021/01/21 10:36:30;;;;;;;2.58;0.95;;;10.40;99.90;;;;;;6154929;23;20147;-80
2021/01/21 10:38:55;;;;;;;7.38;1.45;;;10.40;99.90;;;;;;6152627;23;20222;-82
2021/01/21 10:41:22;;;;;;;19.03;1.80;;;10.40;99.90;;;;;;6129168;23;20546;-83
2021/01/21 10:43:48;;;;;;;14.48;1.77;;;10.40;99.90;;;;;;6153568;23;20279;-80
2021/01/21 10:46:14;;;;;;;5.00;0.70;;;10.50;99.90;;;;;;6152894;23;20522;-80
2021/01/21 10:48:39;;;;;;;2.10;0.70;;;10.50;99.90;;;;;;6151831;23;20189;-81
2021/01/21 10:51:05;;;;;;;2.90;0.80;;;10.50;99.90;;;;;;6127263;23;20158;-83
2021/01/21 10:53:31;;;;;;;2.10;0.73;;;10.50;99.90;;;;;;6152772;23;20147;-82
2021/01/21 10:55:57;;;;;;;2.30;0.70;;;10.60;99.90;;;;;;6153766;23;20237;-82
2021/01/21 10:58:23;;;;;;;1.23;0.60;;;10.60;99.90;;;;;;6157300;23;21030;-82
2021/01/21 11:00:48;;;;;;;3.87;0.70;;;10.60;99.90;;;;;;6153639;23;20189;-81
2021/01/21 12:14:05;;;;;;;4.10;0.65;;;12.70;99.90;;;;;;6170739;23;20714;-78
2021/01/21 12:16:31;;;;;;;2.40;0.70;;;12.70;99.90;;;;;;6154832;23;20150;-78
2021/01/21 12:18:57;;;;;;;2.60;0.63;;;12.70;99.90;;;;;;6190589;23;20564;-80
2021/01/21 12:21:24;;;;;;;2.10;0.60;;;12.70;99.90;;;;;;6158241;23;20157;-81
2021/01/21 12:23:50;;;;;;;2.22;0.70;;;12.80;99.90;;;;;;6182799;23;20161;-80
2021/01/21 12:38:28;;;;;;;1.92;0.60;;;12.90;99.90;;;;;;6162025;23;20224;-81
2021/01/21 12:40:54;;;;;;;2.40;0.80;;;12.80;99.90;;;;;;6178685;23;20156;-80
2021/01/21 12:43:21;;;;;;;3.70;0.80;;;12.80;99.90;;;;;;6152546;23;20150;-80
2021/01/21 12:45:49;;;;;;;1.65;0.60;;;12.80;99.90;;;;;;6179381;23;20565;-81
2021/01/21 12:48:19;;;;;;;1.90;0.70;;;12.80;99.90;;;;;;6179368;23;20509;-81
2021/01/21 12:50:46;;;;;;;1.30;0.50;;;12.80;99.90;;;;;;6153289;23;20150;-82
2021/01/21 12:53:12;;;;;;;4.57;0.80;;;12.80;99.90;;;;;;6153876;23;20626;-83
2021/01/21 12:55:38;;;;;;;5.55;0.90;;;12.80;99.90;;;;;;6182017;23;20287;-82
2021/01/21 12:58:04;;;;;;;17.33;2.00;;;12.80;99.90;;;;;;6155045;23;20592;-80
2021/01/21 13:00:30;;;;;;;2.20;0.75;;;12.80;99.90;;;;;;6181032;23;21063;-78
2021/01/21 13:02:56;;;;;;;4.50;0.70;;;12.90;99.90;;;;;;6155092;23;20150;-79
2021/01/21 13:05:22;;;;;;;4.90;0.73;;;12.90;99.90;;;;;;6181531;23;20497;-78
2021/01/21 13:07:48;;;;;;;1.40;0.63;;;12.90;99.90;;;;;;6180919;23;20521;-80
2021/01/21 13:10:15;;;;;;;4.17;0.63;;;12.90;99.90;;;;;;6181287;23;20524;-80
2021/01/21 13:12:44;;;;;;;1.23;0.60;;;12.80;99.90;;;;;;6154794;23;20236;-79
2021/01/21 13:15:10;;;;;;;1.75;0.63;;;12.80;99.90;;;;;;6154640;23;20223;-80
2021/01/21 13:17:37;;;;;;;2.28;0.60;;;12.80;99.90;;;;;;6180199;23;20176;-79
2021/01/21 13:20:03;;;;;;;6.70;0.77;;;12.90;99.90;;;;;;6181219;23;20150;-78
2021/01/21 13:22:29;;;;;;;4.32;0.77;;;12.90;99.90;;;;;;6181177;23;20476;-80
2021/01/21 13:24:55;;;;;;;7.40;1.30;;;12.90;99.90;;;;;;6155570;23;20174;-79
2021/01/21 13:27:20;;;;;;;8.43;0.70;;;13.00;99.90;;;;;;6185754;23;20149;-79
2021/01/21 13:29:46;;;;;;;4.60;0.60;;;12.90;99.90;;;;;;6181004;23;20220;-78
2021/01/21 13:32:12;;;;;;;7.10;1.40;;;13.00;99.90;;;;;;6180593;23;20195;-78
2021/01/21 13:34:41;;;;;;;4.73;0.90;;;12.90;99.90;;;;;;6181355;23;20241;-80
2021/01/21 13:37:07;;;;;;;3.35;0.70;;;13.00;99.90;;;;;;6181217;23;20153;-79
2021/01/21 13:39:33;;;;;;;1.58;0.60;;;13.00;99.90;;;;;;6180432;23;20157;-80
2021/01/21 13:41:59;;;;;;;3.55;0.75;;;13.00;99.90;;;;;;6180826;23;20180;-80
2021/01/21 13:44:25;;;;;;;2.73;0.70;;;13.00;99.90;;;;;;6180922;23;20213;-80
2021/01/21 13:46:51;;;;;;;2.60;0.60;;;12.90;99.90;;;;;;6180969;23;20552;-80
2021/01/21 13:49:16;;;;;;;1.50;0.67;;;12.90;99.90;;;;;;6154327;23;20902;-79
2021/01/21 13:51:42;;;;;;;3.83;1.20;;;12.80;99.90;;;;;;6180755;23;20528;-80
2021/01/21 13:54:08;;;;;;;2.23;0.60;;;12.80;99.90;;;;;;6129894;23;20172;-80
2021/01/21 13:56:34;;;;;;;3.57;0.80;;;12.80;99.90;;;;;;6129906;23;20531;-79
2021/01/21 13:59:00;;;;;;;2.10;0.60;;;12.80;99.90;;;;;;6180516;23;20529;-79
2021/01/21 14:01:26;;;;;;;1.13;0.60;;;12.80;99.90;;;;;;6154908;23;20204;-78
2021/01/21 14:03:51;;;;;;;2.10;0.70;;;12.70;99.90;;;;;;6184342;23;20150;-79
2021/01/21 14:06:17;;;;;;;1.87;0.60;;;12.70;99.90;;;;;;6181727;23;20516;-79
2021/01/21 14:08:43;;;;;;;1.67;0.60;;;12.70;99.90;;;;;;6180509;23;20251;-79
2021/01/21 14:11:09;;;;;;;1.85;0.50;;;12.60;99.90;;;;;;6154354;23;20142;-79
2021/01/21 14:13:35;;;;;;;3.83;0.80;;;12.60;99.90;;;;;;6180964;23;20153;-79
2021/01/21 14:16:01;;;;;;;5.13;0.80;;;12.60;99.90;;;;;;6154906;23;20265;-80
2021/01/21 14:18:28;;;;;;;2.97;0.80;;;12.50;99.90;;;;;;6130488;23;20873;-79
2021/01/21 14:20:54;;;;;;;4.97;0.90;;;12.50;99.90;;;;;;6155733;23;20165;-79
2021/01/21 14:23:20;;;;;;;2.30;0.60;;;12.50;99.90;;;;;;6155012;23;20188;-79
2021/01/21 14:25:46;;;;;;;2.70;0.60;;;12.40;99.90;;;;;;6154853;23;20592;-79
2021/01/21 14:28:12;;;;;;;4.90;0.70;;;12.40;99.90;;;;;;6155390;23;20186;-80
2021/01/21 14:30:38;;;;;;;5.43;0.80;;;12.40;99.90;;;;;;6156817;23;20192;-79
2021/01/21 14:33:04;;;;;;;2.40;0.70;;;12.30;99.90;;;;;;6183221;23;20196;-80